Navig8 Sky — V7ST2 — position and weather

sailwx.info

Track history (hours):
 
Tides and Currents Weather Stations Pressure Air Temp Water Temp Dewpoint Dewpoint Depression Visibility Wind Speed Wind Dir Waves Ship Positions

Navig8 Sky

Last reported at 2017-Dec-26 00:45 UTC. Time now 2018-Feb-21 15:45 UTC.
Position N 29°21' W 094°43'.
Warning: this ship's position is 57 days out of date.

Length 153 m; draft 7.8 m.

Type: Tanker. MMSI: 538006891.

Date/timePositionNaut miles runAvg speedWind from/ knotsBaromVisibWave heightAir tempDewpointWater temp
2017-Dec-26 00:45N 29°21' W 094°43'311.5
2017-Dec-26 00:30N 29°21' W 094°46'1312.0
2017-Dec-25 23:26N 29°32' W 094°54'512.1
2017-Dec-25 23:00N 29°36' W 094°57'611.3
2017-Dec-25 22:30N 29°41' W 094°59'4 8.1
2017-Dec-25 22:00N 29°44' W 095°03'3 6.1
2017-Dec-25 21:30N 29°45' W 095°06'3 6.4
2017-Dec-25 21:00N 29°45' W 095°10'3 5.6
2017-Dec-25 20:30N 29°44' W 095°13'3 5.5
2017-Dec-25 20:00N 29°44' W 095°16'2 0.0
2017-Dec-24 02:59N 29°45' W 095°17'0 0.3
2017-Dec-24 02:29N 29°45' W 095°17'1 2.3
2017-Dec-24 02:00N 29°44' W 095°17'2 4.8
2017-Dec-24 01:30N 29°43' W 095°14'3 5.9
2017-Dec-24 01:00N 29°45' W 095°11'3 6.5
2017-Dec-24 00:29N 29°44' W 095°07'3 5.8
2017-Dec-24 00:00N 29°45' W 095°04'4 7.0
2017-Dec-23 23:30N 29°42' W 095°01'5 9.6
2017-Dec-23 23:00N 29°39' W 094°58'3 5.7
2017-Dec-23 22:31N 29°37' W 095°01'1 0.2
2017-Dec-23 19:53N 29°37' W 095°01'0 0.0
2017-Dec-23 19:23N 29°37' W 095°01'0 0.0
2017-Dec-23 18:59N 29°37' W 095°01'0 0.0
2017-Dec-23 16:53N 29°37' W 095°01'0 0.0
2017-Dec-23 15:26N 29°37' W 095°01'0 0.0
2017-Dec-23 14:59N 29°37' W 095°01'0 0.0
2017-Dec-23 14:23N 29°37' W 095°01'0 0.0
2017-Dec-23 13:56N 29°37' W 095°01'0 0.0
2017-Dec-23 13:29N 29°37' W 095°01'0 0.0
2017-Dec-23 12:56N 29°37' W 095°01'0 0.0
2017-Dec-23 11:50N 29°37' W 095°01'0 0.0
2017-Dec-23 11:26N 29°37' W 095°01'0 0.0
2017-Dec-23 10:41N 29°37' W 095°01'0 0.0
2017-Dec-23 10:23N 29°37' W 095°01'0 0.0
2017-Dec-23 09:59N 29°37' W 095°01'0 0.0
2017-Dec-23 08:11N 29°37' W 095°01'0 0.0
2017-Dec-22 22:44N 29°37' W 095°01'0 0.0
2017-Dec-22 21:32N 29°37' W 095°01'0 0.0
2017-Dec-22 21:08N 29°37' W 095°01'0 0.0
2017-Dec-22 20:50N 29°37' W 095°01'0 0.0
2017-Dec-22 17:26N 29°37' W 095°01'0 0.0
2017-Dec-22 16:59N 29°37' W 095°01'0 0.0
2017-Dec-22 16:23N 29°37' W 095°01'0 0.0
2017-Dec-22 15:59N 29°37' W 095°01'0 0.0
2017-Dec-22 15:26N 29°37' W 095°01'0 0.0
2017-Dec-22 13:14N 29°37' W 095°01'0 0.0
2017-Dec-22 12:50N 29°37' W 095°01'0 0.0
2017-Dec-22 11:08N 29°37' W 095°01'0 0.0
2017-Dec-22 03:11N 29°37' W 095°01'0 0.0
2017-Dec-22 02:59N 29°37' W 095°01'0 0.0
2017-Dec-21 18:29N 29°37' W 095°01'0 0.0
2017-Dec-21 09:23N 29°37' W 095°01'12 7.8
2017-Dec-21 07:53N 29°29' W 094°51'410.9
2017-Dec-21 07:30N 29°25' W 094°49'510.4
2017-Dec-21 07:00N 29°21' W 094°46'510.3
2017-Dec-21 06:29N 29°20' W 094°40'510.5
2017-Dec-21 05:59N 29°17' W 094°35'2 4.6
2017-Dec-21 05:30N 29°17' W 094°32'0 0.0
2017-Dec-20 16:03N 29°17' W 094°32'0 0.0
2017-Dec-20 15:51N 29°17' W 094°32'0 0.0
2017-Dec-20 15:30N 29°17' W 094°32'0 0.0
2017-Dec-20 14:57N 29°17' W 094°32'0 0.0
2017-Dec-20 14:27N 29°17' W 094°33'0 0.0
2017-Dec-20 13:54N 29°17' W 094°32'  
2017-Dec-18 00:57N 27°10' W 091°13'510.0
2017-Dec-18 00:29N 27°08' W 091°08'511.0
2017-Dec-18 00:00N 27°05' W 091°03'713.9
2017-Dec-17 23:29N 27°02' W 090°56'713.8
2017-Dec-17 22:59N 26°59' W 090°49'713.7
2017-Dec-17 22:30N 26°56' W 090°42'713.7
2017-Dec-17 21:59N 26°53' W 090°35'613.7
2017-Dec-17 21:30N 26°51' W 090°28'713.7
2017-Dec-17 21:00N 26°48' W 090°21'  
Track history (hours):
 
Tides and Currents Weather Stations Pressure Air Temp Water Temp Dewpoint Dewpoint Depression Visibility Wind Speed Wind Dir Waves Ship Positions

Navig8 Sky

Last reported at 2017-Dec-26 00:45 UTC. Time now 2018-Feb-21 15:45 UTC.
Position N 29°21' W 094°43'.
Warning: this ship's position is 57 days out of date.

Length 153 m; draft 7.8 m.

Type: Tanker. MMSI: 538006891.

Date/timePositionNaut miles runAvg speedWind from/ knotsBaromVisibWave heightAir tempDewpointWater temp
2017-Dec-26 00:45N 29°21' W 094°43'311.5
2017-Dec-26 00:30N 29°21' W 094°46'1312.0
2017-Dec-25 23:26N 29°32' W 094°54'512.1
2017-Dec-25 23:00N 29°36' W 094°57'611.3
2017-Dec-25 22:30N 29°41' W 094°59'4 8.1
2017-Dec-25 22:00N 29°44' W 095°03'3 6.1
2017-Dec-25 21:30N 29°45' W 095°06'3 6.4
2017-Dec-25 21:00N 29°45' W 095°10'3 5.6
2017-Dec-25 20:30N 29°44' W 095°13'3 5.5
2017-Dec-25 20:00N 29°44' W 095°16'2 0.0
2017-Dec-24 02:59N 29°45' W 095°17'0 0.3
2017-Dec-24 02:29N 29°45' W 095°17'1 2.3
2017-Dec-24 02:00N 29°44' W 095°17'2 4.8
2017-Dec-24 01:30N 29°43' W 095°14'3 5.9
2017-Dec-24 01:00N 29°45' W 095°11'3 6.5
2017-Dec-24 00:29N 29°44' W 095°07'3 5.8
2017-Dec-24 00:00N 29°45' W 095°04'4 7.0
2017-Dec-23 23:30N 29°42' W 095°01'5 9.6
2017-Dec-23 23:00N 29°39' W 094°58'3 5.7
2017-Dec-23 22:31N 29°37' W 095°01'1 0.2
2017-Dec-23 19:53N 29°37' W 095°01'0 0.0
2017-Dec-23 19:23N 29°37' W 095°01'0 0.0
2017-Dec-23 18:59N 29°37' W 095°01'0 0.0
2017-Dec-23 16:53N 29°37' W 095°01'0 0.0
2017-Dec-23 15:26N 29°37' W 095°01'0 0.0
2017-Dec-23 14:59N 29°37' W 095°01'0 0.0
2017-Dec-23 14:23N 29°37' W 095°01'0 0.0
2017-Dec-23 13:56N 29°37' W 095°01'0 0.0
2017-Dec-23 13:29N 29°37' W 095°01'0 0.0
2017-Dec-23 12:56N 29°37' W 095°01'0 0.0
2017-Dec-23 11:50N 29°37' W 095°01'0 0.0
2017-Dec-23 11:26N 29°37' W 095°01'0 0.0
2017-Dec-23 10:41N 29°37' W 095°01'0 0.0
2017-Dec-23 10:23N 29°37' W 095°01'0 0.0
2017-Dec-23 09:59N 29°37' W 095°01'0 0.0
2017-Dec-23 08:11N 29°37' W 095°01'0 0.0
2017-Dec-22 22:44N 29°37' W 095°01'0 0.0
2017-Dec-22 21:32N 29°37' W 095°01'0 0.0
2017-Dec-22 21:08N 29°37' W 095°01'0 0.0
2017-Dec-22 20:50N 29°37' W 095°01'0 0.0
2017-Dec-22 17:26N 29°37' W 095°01'0 0.0
2017-Dec-22 16:59N 29°37' W 095°01'0 0.0
2017-Dec-22 16:23N 29°37' W 095°01'0 0.0
2017-Dec-22 15:59N 29°37' W 095°01'0 0.0
2017-Dec-22 15:26N 29°37' W 095°01'0 0.0
2017-Dec-22 13:14N 29°37' W 095°01'0 0.0
2017-Dec-22 12:50N 29°37' W 095°01'0 0.0
2017-Dec-22 11:08N 29°37' W 095°01'0 0.0
2017-Dec-22 03:11N 29°37' W 095°01'0 0.0
2017-Dec-22 02:59N 29°37' W 095°01'0 0.0
2017-Dec-21 18:29N 29°37' W 095°01'0 0.0
2017-Dec-21 09:23N 29°37' W 095°01'12 7.8
2017-Dec-21 07:53N 29°29' W 094°51'410.9
2017-Dec-21 07:30N 29°25' W 094°49'510.4
2017-Dec-21 07:00N 29°21' W 094°46'510.3
2017-Dec-21 06:29N 29°20' W 094°40'510.5
2017-Dec-21 05:59N 29°17' W 094°35'2 4.6
2017-Dec-21 05:30N 29°17' W 094°32'0 0.0
2017-Dec-20 16:03N 29°17' W 094°32'0 0.0
2017-Dec-20 15:51N 29°17' W 094°32'0 0.0
2017-Dec-20 15:30N 29°17' W 094°32'0 0.0
2017-Dec-20 14:57N 29°17' W 094°32'0 0.0
2017-Dec-20 14:27N 29°17' W 094°33'0 0.0
2017-Dec-20 13:54N 29°17' W 094°32'  
2017-Dec-18 00:57N 27°10' W 091°13'510.0
2017-Dec-18 00:29N 27°08' W 091°08'511.0
2017-Dec-18 00:00N 27°05' W 091°03'713.9
2017-Dec-17 23:29N 27°02' W 090°56'713.8
2017-Dec-17 22:59N 26°59' W 090°49'713.7
2017-Dec-17 22:30N 26°56' W 090°42'713.7
2017-Dec-17 21:59N 26°53' W 090°35'613.7
2017-Dec-17 21:30N 26°51' W 090°28'713.7
2017-Dec-17 21:00N 26°48' W 090°21'  

Dump ship's entire track history